createdAt,value
2017-04-22T00:00:10.601Z,18.32
2017-04-22T00:00:29.493Z,18.34
2017-04-22T00:00:48.792Z,18.22
2017-04-22T00:01:08.101Z,18.31
2017-04-22T00:01:27.341Z,18.34
2017-04-22T00:01:46.746Z,18.28
2017-04-22T00:02:05.497Z,18.25
2017-04-22T00:02:24.771Z,18.34
2017-04-22T00:02:44.034Z,18.24
2017-04-22T00:03:02.793Z,18.39
2017-04-22T00:03:22.087Z,18.37
2017-04-22T00:03:41.358Z,18.42
2017-04-22T00:04:00.618Z,18.39
2017-04-22T00:04:19.891Z,18.43
2017-04-22T00:04:39.146Z,18.4
2017-04-22T00:04:58.543Z,18.37
2017-04-22T00:05:17.313Z,18.24
2017-04-22T00:05:36.598Z,18.28
2017-04-22T00:05:55.860Z,18.21
2017-04-22T00:06:15.140Z,18.25
2017-04-22T00:06:34.375Z,18.28
2017-04-22T00:06:53.135Z,18.32
2017-04-22T00:07:11.876Z,18.32
2017-04-22T00:07:31.156Z,18.35
2017-04-22T00:07:49.943Z,18.32
2017-04-22T00:08:09.245Z,18.32
2017-04-22T00:08:28.104Z,18.28
2017-04-22T00:08:47.359Z,18.25
2017-04-22T00:09:06.644Z,18.25
2017-04-22T00:09:24.850Z,18.27
2017-04-22T00:09:44.090Z,18.25
2017-04-22T00:10:02.844Z,18.25
2017-04-22T00:10:21.592Z,18.21
2017-04-22T00:10:40.875Z,18.22
2017-04-22T00:11:00.131Z,18.28
2017-04-22T00:11:19.394Z,18.31
2017-04-22T00:11:38.158Z,18.22
2017-04-22T00:11:57.640Z,18.25
2017-04-22T00:12:16.885Z,18.31
2017-04-22T00:12:36.171Z,18.18
2017-04-22T00:12:55.456Z,18.29
2017-04-22T00:13:14.710Z,18.28
2017-04-22T00:13:33.998Z,18.32
2017-04-22T00:13:53.281Z,18.31
2017-04-22T00:14:12.552Z,18.28
2017-04-22T00:14:31.834Z,18.35
2017-04-22T00:14:51.098Z,18.39
2017-04-22T00:15:10.364Z,18.37
2017-04-22T00:15:29.649Z,18.39
2017-04-22T00:15:48.940Z,18.42
2017-04-22T00:16:08.225Z,18.34
2017-04-22T00:16:26.940Z,18.47
2017-04-22T00:16:46.202Z,18.49
2017-04-22T00:17:05.468Z,18.43
2017-04-22T00:17:24.725Z,18.46
2017-04-22T00:17:43.975Z,18.58
2017-04-22T00:18:03.227Z,18.65
2017-04-22T00:18:22.493Z,18.61
2017-04-22T00:18:41.242Z,18.65
2017-04-22T00:19:00.470Z,18.61
2017-04-22T00:19:19.747Z,18.53
2017-04-22T00:19:39.034Z,18.61
2017-04-22T00:19:58.317Z,18.62
2017-04-22T00:20:17.069Z,18.62
2017-04-22T00:20:36.313Z,18.61
2017-04-22T00:20:55.593Z,18.57
2017-04-22T00:21:14.347Z,18.64
2017-04-22T00:21:33.095Z,18.65
2017-04-22T00:21:52.394Z,18.61
2017-04-22T00:22:11.934Z,18.62
2017-04-22T00:22:30.672Z,18.58
2017-04-22T00:22:49.945Z,18.76
2017-04-22T00:23:08.719Z,18.69
2017-04-22T00:23:28.013Z,18.76
2017-04-22T00:23:47.290Z,18.71
2017-04-22T00:24:06.583Z,18.68
2017-04-22T00:24:25.837Z,18.73
2017-04-22T00:24:45.116Z,18.71
2017-04-22T00:25:03.886Z,18.74
2017-04-22T00:25:23.176Z,18.76
2017-04-22T00:25:42.597Z,18.73
2017-04-22T00:26:01.893Z,18.59
2017-04-22T00:26:21.205Z,18.61
2017-04-22T00:26:40.207Z,18.77
2017-04-22T00:26:59.455Z,18.68
2017-04-22T00:27:18.696Z,18.59
2017-04-22T00:27:37.921Z,18.67
2017-04-22T00:27:56.760Z,18.61
2017-04-22T00:28:15.000Z,18.74
2017-04-22T00:28:34.300Z,18.64
2017-04-22T00:28:53.576Z,18.73
2017-04-22T00:29:12.811Z,18.64
2017-04-22T00:29:31.575Z,18.64
2017-04-22T00:29:50.808Z,18.73
2017-04-22T00:30:10.088Z,18.65
2017-04-22T00:30:29.417Z,18.62
2017-04-22T00:30:48.139Z,18.69
2017-04-22T00:31:07.505Z,18.71
2017-04-22T00:31:26.767Z,18.58
2017-04-22T00:31:46.087Z,18.59
2017-04-22T00:32:04.862Z,18.71
2017-04-22T00:32:24.152Z,18.67
2017-04-22T00:32:43.475Z,18.76
2017-04-22T00:33:02.793Z,18.79
2017-04-22T00:33:22.132Z,18.79
2017-04-22T00:33:41.403Z,18.79
2017-04-22T00:34:00.718Z,18.76
2017-04-22T00:34:20.007Z,18.76
2017-04-22T00:34:39.297Z,18.77
2017-04-22T00:34:58.601Z,18.67
2017-04-22T00:35:17.360Z,18.68
2017-04-22T00:35:36.122Z,18.69
2017-04-22T00:35:55.419Z,18.68
2017-04-22T00:36:14.707Z,18.76
2017-04-22T00:36:33.471Z,18.69
2017-04-22T00:36:52.256Z,18.73
2017-04-22T00:37:11.021Z,18.69
2017-04-22T00:37:30.279Z,18.73
2017-04-22T00:37:49.076Z,18.74
2017-04-22T00:38:07.866Z,18.71
2017-04-22T00:38:27.132Z,18.68
2017-04-22T00:38:46.423Z,18.71
2017-04-22T00:39:04.670Z,18.68
2017-04-22T00:39:24.039Z,18.64
2017-04-22T00:39:42.830Z,18.64
2017-04-22T00:40:01.092Z,18.74
2017-04-22T00:40:19.925Z,18.71
2017-04-22T00:40:38.718Z,18.62
2017-04-22T00:40:58.002Z,18.76
2017-04-22T00:41:17.396Z,18.64
2017-04-22T00:41:36.677Z,18.64
2017-04-22T00:41:55.918Z,18.76
2017-04-22T00:42:14.684Z,18.73
2017-04-22T00:42:33.962Z,18.61
2017-04-22T00:42:53.240Z,18.65
2017-04-22T00:43:12.543Z,18.64
2017-04-22T00:43:31.313Z,18.65
2017-04-22T00:43:50.583Z,18.65
2017-04-22T00:44:09.350Z,18.67
2017-04-22T00:44:28.143Z,18.62
2017-04-22T00:44:47.143Z,18.62
2017-04-22T00:45:06.451Z,18.62
2017-04-22T00:45:25.726Z,18.62
2017-04-22T00:45:44.981Z,18.67
2017-04-22T00:46:04.261Z,18.68
2017-04-22T00:46:23.567Z,18.64
2017-04-22T00:46:42.992Z,18.74
2017-04-22T00:47:02.275Z,18.59
2017-04-22T00:47:21.041Z,18.62
2017-04-22T00:47:40.341Z,18.67
2017-04-22T00:47:59.137Z,18.73
2017-04-22T00:48:17.974Z,18.73
2017-04-22T00:48:36.739Z,18.71
2017-04-22T00:48:56.072Z,18.79
2017-04-22T00:49:15.372Z,18.83
2017-04-22T00:49:34.120Z,18.79
2017-04-22T00:49:52.880Z,18.86
2017-04-22T00:50:11.665Z,18.8
2017-04-22T00:50:30.931Z,18.77
2017-04-22T00:50:50.214Z,18.68
2017-04-22T00:51:09.563Z,18.79
2017-04-22T00:51:27.832Z,18.77
2017-04-22T00:51:47.454Z,18.76
2017-04-22T00:52:06.206Z,18.76
2017-04-22T00:52:24.931Z,18.77
2017-04-22T00:52:44.214Z,18.69
2017-04-22T00:53:03.463Z,18.79
2017-04-22T00:53:22.214Z,18.77
2017-04-22T00:53:41.506Z,18.71
2017-04-22T00:54:01.069Z,18.71
2017-04-22T00:54:20.319Z,18.77
2017-04-22T00:54:39.607Z,18.74
2017-04-22T00:54:58.997Z,18.76
2017-04-22T00:55:18.261Z,18.77
2017-04-22T00:55:37.513Z,18.79
2017-04-22T00:55:56.280Z,18.76
2017-04-22T00:56:15.072Z,18.77
2017-04-22T00:56:34.374Z,18.73
2017-04-22T00:56:53.813Z,18.74
2017-04-22T00:57:12.597Z,18.79
2017-04-22T00:57:31.872Z,18.68
2017-04-22T00:57:50.634Z,18.79
2017-04-22T00:58:09.907Z,18.74
2017-04-22T00:58:29.167Z,18.74
2017-04-22T00:58:48.458Z,18.71
2017-04-22T00:59:07.196Z,18.73
2017-04-22T00:59:25.952Z,18.64
2017-04-22T00:59:45.187Z,18.61
2017-04-22T01:00:03.934Z,18.62
2017-04-22T01:00:23.758Z,18.64
2017-04-22T01:00:43.059Z,18.67
2017-04-22T01:01:02.312Z,18.62
2017-04-22T01:01:21.097Z,18.68
2017-04-22T01:01:40.392Z,18.59
2017-04-22T01:01:59.667Z,18.59
2017-04-22T01:02:18.929Z,18.59
2017-04-22T01:02:38.202Z,18.58
2017-04-22T01:02:57.480Z,18.49
2017-04-22T01:03:16.739Z,18.61
2017-04-22T01:03:36.023Z,18.65
2017-04-22T01:03:54.773Z,18.55
2017-04-22T01:04:13.630Z,18.61
2017-04-22T01:04:32.894Z,18.57
2017-04-22T01:04:52.182Z,18.62
2017-04-22T01:05:11.444Z,18.62
2017-04-22T01:05:30.734Z,18.59
2017-04-22T01:05:50.001Z,18.59
2017-04-22T01:06:09.315Z,18.62
2017-04-22T01:06:28.617Z,18.61
2017-04-22T01:06:48.200Z,18.67
2017-04-22T01:07:07.495Z,18.58
2017-04-22T01:07:26.760Z,18.61
2017-04-22T01:07:46.021Z,18.61
2017-04-22T01:08:04.781Z,18.67
2017-04-22T01:08:23.065Z,18.77
2017-04-22T01:08:42.319Z,18.62
2017-04-22T01:09:01.616Z,18.62
2017-04-22T01:09:20.389Z,18.59
2017-04-22T01:09:39.676Z,18.71
2017-04-22T01:09:59.050Z,18.71
2017-04-22T01:10:18.302Z,18.73
2017-04-22T01:10:37.559Z,18.69
2017-04-22T01:10:56.436Z,18.62
2017-04-22T01:11:15.693Z,18.58
2017-04-22T01:11:34.992Z,18.61
2017-04-22T01:11:54.278Z,18.67
2017-04-22T01:12:13.082Z,18.73
2017-04-22T01:12:32.335Z,18.76
2017-04-22T01:12:51.598Z,18.59
2017-04-22T01:13:10.341Z,18.73
2017-04-22T01:13:29.627Z,18.58
2017-04-22T01:13:48.899Z,18.62
2017-04-22T01:14:08.156Z,18.58
2017-04-22T01:14:26.904Z,18.68
2017-04-22T01:14:46.176Z,18.59
2017-04-22T01:15:05.481Z,18.65
2017-04-22T01:15:24.857Z,18.59
2017-04-22T01:15:43.596Z,18.61
2017-04-22T01:16:02.838Z,18.64
2017-04-22T01:16:22.115Z,18.64
2017-04-22T01:16:41.409Z,18.62
2017-04-22T01:17:00.191Z,18.58
2017-04-22T01:17:18.939Z,18.61
2017-04-22T01:17:38.170Z,18.59
2017-04-22T01:17:57.415Z,18.57
2017-04-22T01:18:16.688Z,18.52
2017-04-22T01:18:35.950Z,18.58
2017-04-22T01:18:54.677Z,18.53
2017-04-22T01:19:13.996Z,18.57
2017-04-22T01:19:33.270Z,18.5
2017-04-22T01:19:52.530Z,18.49
2017-04-22T01:20:11.038Z,18.58
2017-04-22T01:20:30.284Z,18.62
2017-04-22T01:20:49.537Z,18.62
2017-04-22T01:21:08.307Z,18.61
2017-04-22T01:21:27.567Z,18.59
2017-04-22T01:21:46.853Z,18.59
2017-04-22T01:22:06.135Z,18.58
2017-04-22T01:22:25.528Z,18.5
2017-04-22T01:22:44.802Z,18.49
2017-04-22T01:23:04.107Z,18.55
2017-04-22T01:23:23.369Z,18.61
2017-04-22T01:23:42.642Z,18.47
2017-04-22T01:24:01.906Z,18.61
2017-04-22T01:24:20.638Z,18.64
2017-04-22T01:24:39.908Z,18.55
2017-04-22T01:24:58.620Z,18.57
2017-04-22T01:25:17.889Z,18.53
2017-04-22T01:25:37.137Z,18.67
2017-04-22T01:25:55.881Z,18.58
2017-04-22T01:26:15.147Z,18.64
2017-04-22T01:26:34.444Z,18.73
2017-04-22T01:26:54.015Z,18.71
2017-04-22T01:27:13.296Z,18.68
2017-04-22T01:27:32.548Z,18.64
2017-04-22T01:27:51.288Z,18.65
2017-04-22T01:28:10.539Z,18.65
2017-04-22T01:28:28.793Z,18.62
2017-04-22T01:28:48.078Z,18.62
2017-04-22T01:29:07.357Z,18.67
2017-04-22T01:29:26.659Z,18.64
2017-04-22T01:29:45.953Z,18.64
2017-04-22T01:30:05.203Z,18.69
2017-04-22T01:30:23.958Z,18.62
2017-04-22T01:30:43.212Z,18.64
2017-04-22T01:31:02.479Z,18.68
2017-04-22T01:31:22.175Z,18.59
2017-04-22T01:31:42.500Z,18.68
2017-04-22T01:32:04.351Z,18.71
2017-04-22T01:32:23.980Z,18.69
2017-04-22T01:32:43.544Z,18.73
2017-04-22T01:33:02.370Z,18.68
2017-04-22T01:33:21.666Z,18.83
2017-04-22T01:33:41.605Z,18.74
2017-04-22T01:34:00.973Z,18.84
2017-04-22T01:34:20.367Z,18.77
2017-04-22T01:34:39.817Z,18.8
2017-04-22T01:34:59.338Z,18.82
2017-04-22T01:35:18.803Z,18.83
2017-04-22T01:35:38.235Z,18.84
2017-04-22T01:35:57.616Z,18.84
2017-04-22T01:36:16.989Z,18.83
2017-04-22T01:36:36.393Z,18.77
2017-04-22T01:36:55.780Z,18.82
2017-04-22T01:37:15.133Z,18.8
2017-04-22T01:37:34.571Z,18.76
2017-04-22T01:38:26.716Z,18.79
2017-04-22T01:38:46.091Z,18.77
2017-04-22T01:39:05.497Z,18.83
2017-04-22T01:39:24.926Z,18.79
2017-04-22T01:39:44.332Z,18.82
2017-04-22T01:40:03.738Z,18.83
2017-04-22T01:40:22.269Z,18.8
2017-04-22T01:40:41.693Z,18.86
2017-04-22T01:41:48.185Z,18.82
2017-04-22T01:42:07.010Z,18.86
2017-04-22T01:42:26.389Z,18.83
2017-04-22T01:42:45.821Z,18.82
2017-04-22T01:43:04.741Z,18.82
2017-04-22T01:43:24.072Z,18.8
2017-04-22T01:43:43.581Z,18.71
2017-04-22T01:44:02.909Z,18.74
2017-04-22T01:44:21.723Z,18.73
2017-04-22T01:44:41.601Z,18.74
2017-04-22T01:45:01.200Z,18.76
2017-04-22T01:45:21.130Z,18.71
2017-04-22T01:45:40.586Z,18.74
2017-04-22T01:45:59.940Z,18.73
2017-04-22T01:46:19.372Z,18.68
2017-04-22T01:46:38.708Z,18.77
2017-04-22T01:46:57.683Z,18.79
2017-04-22T01:47:17.104Z,18.73
2017-04-22T01:47:36.422Z,18.68
2017-04-22T01:47:55.833Z,18.8
2017-04-22T01:48:15.152Z,18.79
2017-04-22T01:48:34.715Z,18.79
2017-04-22T01:48:54.106Z,18.79
2017-04-22T01:49:13.549Z,18.83
2017-04-22T01:49:33.053Z,18.79
2017-04-22T01:49:51.877Z,18.8
2017-04-22T01:50:10.804Z,18.82
2017-04-22T01:50:30.189Z,18.76
2017-04-22T01:50:49.745Z,18.8
2017-04-22T01:51:09.180Z,18.82
2017-04-22T01:51:28.565Z,18.82
2017-04-22T01:51:48.397Z,18.8
2017-04-22T01:52:07.780Z,18.77
2017-04-22T01:52:27.216Z,18.8
2017-04-22T01:52:46.656Z,18.82
2017-04-22T01:53:05.554Z,18.77
2017-04-22T01:53:24.901Z,18.8
2017-04-22T01:53:44.386Z,18.9
2017-04-22T01:54:03.669Z,18.82
2017-04-22T01:54:23.038Z,18.87
2017-04-22T01:54:41.459Z,18.94
2017-04-22T01:55:01.330Z,18.98
2017-04-22T01:55:20.417Z,18.9
2017-04-22T01:55:38.230Z,18.98
2017-04-22T01:55:57.169Z,18.99
2017-04-22T01:56:16.521Z,18.98
2017-04-22T01:56:35.874Z,18.98
2017-04-22T01:56:55.593Z,18.94
2017-04-22T01:57:14.986Z,18.94
2017-04-22T01:57:34.397Z,18.95
2017-04-22T01:57:53.348Z,18.97
2017-04-22T01:58:12.565Z,18.97
2017-04-22T01:58:30.891Z,18.97
2017-04-22T01:58:50.439Z,19.01
2017-04-22T01:59:10.295Z,18.95
2017-04-22T01:59:29.199Z,18.92
2017-04-22T01:59:48.053Z,18.95
2017-04-22T02:00:06.851Z,18.98
2017-04-22T02:00:26.418Z,19.01
2017-04-22T02:00:45.925Z,18.97
2017-04-22T02:01:05.302Z,18.95
2017-04-22T02:01:23.753Z,18.97
2017-04-22T02:01:43.038Z,19.02
2017-04-22T02:02:01.772Z,18.94
2017-04-22T02:02:21.029Z,18.98
2017-04-22T02:02:39.772Z,19.01
2017-04-22T02:02:59.040Z,18.97
2017-04-22T02:03:18.389Z,18.9
2017-04-22T02:03:37.628Z,18.97
2017-04-22T02:03:56.894Z,18.97
2017-04-22T02:04:15.653Z,18.94
2017-04-22T02:04:34.903Z,18.89
2017-04-22T02:04:53.649Z,18.94
2017-04-22T02:05:12.991Z,18.9
2017-04-22T02:05:32.372Z,18.95
2017-04-22T02:05:51.654Z,18.95
2017-04-22T02:06:10.391Z,19.01
2017-04-22T02:06:29.278Z,18.86
2017-04-22T02:06:48.546Z,18.99
2017-04-22T02:07:07.810Z,18.95
2017-04-22T02:07:27.087Z,18.89
2017-04-22T02:07:45.844Z,18.95
2017-04-22T02:08:05.101Z,18.97
2017-04-22T02:08:24.365Z,18.97
2017-04-22T02:08:43.628Z,19.01
2017-04-22T02:09:02.887Z,18.98
2017-04-22T02:09:22.123Z,18.97
2017-04-22T02:09:40.859Z,18.99
2017-04-22T02:10:00.110Z,19.01
2017-04-22T02:10:18.905Z,18.98
2017-04-22T02:10:38.223Z,18.97
2017-04-22T02:10:56.959Z,18.99
2017-04-22T02:11:16.271Z,18.97
2017-04-22T02:11:35.029Z,18.99
2017-04-22T02:11:54.275Z,19.13
2017-04-22T02:12:13.558Z,19.11
2017-04-22T02:12:32.304Z,19.05
2017-04-22T02:12:51.067Z,19.11
2017-04-22T02:13:10.324Z,19.11
2017-04-22T02:13:29.575Z,19.11
2017-04-22T02:13:48.889Z,19.09
2017-04-22T02:14:07.699Z,19.09
2017-04-22T02:14:26.654Z,19.13
2017-04-22T02:14:46.010Z,19.08
2017-04-22T02:15:05.317Z,19.11
2017-04-22T02:15:24.105Z,19.11
2017-04-22T02:15:43.648Z,19.02
2017-04-22T02:16:03.070Z,19.06
2017-04-22T02:16:22.482Z,19.02
2017-04-22T02:16:41.880Z,19.02
2017-04-22T02:17:01.273Z,19.08
2017-04-22T02:17:20.159Z,18.99
2017-04-22T02:17:40.091Z,18.98
2017-04-22T02:17:59.423Z,18.98
2017-04-22T02:18:18.877Z,19.01
2017-04-22T02:18:37.695Z,18.94
2017-04-22T02:18:56.581Z,18.95
2017-04-22T02:19:16.023Z,18.99
2017-04-22T02:19:35.396Z,18.99
2017-04-22T02:19:54.796Z,18.97
2017-04-22T02:20:13.677Z,19.01
2017-04-22T02:20:32.474Z,18.99
2017-04-22T02:20:52.067Z,18.99
2017-04-22T02:21:11.034Z,18.95
2017-04-22T02:21:29.841Z,18.99
2017-04-22T02:21:49.578Z,18.99
2017-04-22T02:22:08.958Z,19.06
2017-04-22T02:22:27.878Z,19.02
2017-04-22T02:22:47.329Z,18.98
2017-04-22T02:23:05.156Z,18.95
2017-04-22T02:23:24.549Z,18.86
2017-04-22T02:23:43.975Z,18.92
2017-04-22T02:24:02.817Z,18.97
2017-04-22T02:24:22.234Z,18.89
2017-04-22T02:24:41.288Z,18.97
2017-04-22T02:25:02.207Z,18.92
2017-04-22T02:25:21.047Z,18.9
2017-04-22T02:25:40.451Z,18.92
2017-04-22T02:25:59.341Z,18.86
2017-04-22T02:26:18.727Z,18.89
2017-04-22T02:26:38.066Z,18.86
2017-04-22T02:26:57.072Z,18.94
2017-04-22T02:27:16.889Z,18.92
2017-04-22T02:27:35.773Z,18.8
2017-04-22T02:27:55.127Z,18.82
2017-04-22T02:28:13.997Z,18.9
2017-04-22T02:28:33.407Z,18.92
2017-04-22T02:28:52.827Z,18.89
2017-04-22T02:29:13.784Z,18.94
2017-04-22T02:29:33.150Z,18.98
2017-04-22T02:29:52.984Z,18.95
2017-04-22T02:30:12.351Z,18.95
2017-04-22T02:30:31.296Z,18.95
2017-04-22T02:30:49.630Z,18.97
2017-04-22T02:31:09.012Z,19.05
2017-04-22T02:31:28.334Z,19.08
2017-04-22T02:31:47.803Z,18.99
2017-04-22T02:32:06.602Z,18.95
2017-04-22T02:32:26.006Z,18.98
2017-04-22T02:32:45.446Z,18.98
2017-04-22T02:33:04.834Z,18.94
2017-04-22T02:33:24.252Z,18.95
2017-04-22T02:33:43.863Z,18.92
2017-04-22T02:34:05.200Z,18.92
2017-04-22T02:34:25.745Z,18.95
2017-04-22T02:34:46.564Z,18.92
2017-04-22T02:35:05.567Z,18.89
2017-04-22T02:35:25.054Z,18.94
2017-04-22T02:35:43.985Z,18.89
2017-04-22T02:36:03.323Z,18.89
2017-04-22T02:36:22.219Z,18.86
2017-04-22T02:36:41.616Z,18.92
2017-04-22T02:36:59.993Z,18.89
2017-04-22T02:37:19.418Z,18.95
2017-04-22T02:37:38.835Z,18.97
2017-04-22T02:37:57.782Z,19.01
2017-04-22T02:38:16.673Z,18.92
2017-04-22T02:38:35.962Z,18.95
2017-04-22T02:38:54.718Z,18.98
2017-04-22T02:39:14.025Z,18.98
2017-04-22T02:39:33.363Z,19.01
2017-04-22T02:39:52.610Z,18.95
2017-04-22T02:40:11.954Z,18.95
2017-04-22T02:40:31.224Z,19.02
2017-04-22T02:40:50.648Z,18.97
2017-04-22T02:41:09.968Z,18.97
2017-04-22T02:41:29.823Z,18.95
2017-04-22T02:41:49.278Z,18.92
2017-04-22T02:42:08.091Z,18.97
2017-04-22T02:42:27.727Z,18.99
2017-04-22T02:42:48.464Z,18.94
2017-04-22T02:43:08.871Z,18.99
2017-04-22T02:43:27.772Z,18.98
2017-04-22T02:43:47.082Z,18.94
2017-04-22T02:44:05.872Z,18.95
2017-04-22T02:44:25.207Z,18.98
2017-04-22T02:44:44.529Z,18.95
2017-04-22T02:45:03.867Z,18.98
2017-04-22T02:45:23.150Z,18.98
2017-04-22T02:45:42.432Z,18.87
2017-04-22T02:46:01.679Z,18.97
2017-04-22T02:46:20.970Z,18.89
2017-04-22T02:46:39.729Z,18.87
2017-04-22T02:46:59.443Z,18.76
2017-04-22T02:47:18.857Z,18.8
2017-04-22T02:47:38.145Z,18.82
2017-04-22T02:47:57.436Z,18.83
2017-04-22T02:48:16.733Z,18.87
2017-04-22T02:48:35.992Z,18.86
2017-04-22T02:48:55.292Z,18.83
2017-04-22T02:49:14.590Z,18.86
2017-04-22T02:49:33.949Z,18.8
2017-04-22T02:49:53.229Z,18.87
2017-04-22T02:50:11.983Z,18.82
2017-04-22T02:50:30.757Z,18.82
2017-04-22T02:50:50.055Z,18.89
2017-04-22T02:51:09.311Z,18.86
2017-04-22T02:51:28.574Z,18.86
2017-04-22T02:51:47.857Z,18.9
2017-04-22T02:52:06.603Z,18.87
2017-04-22T02:52:25.351Z,18.92
2017-04-22T02:52:44.610Z,18.89
2017-04-22T02:53:03.389Z,18.89
2017-04-22T02:53:22.647Z,18.87
2017-04-22T02:53:41.903Z,18.87
2017-04-22T02:54:01.179Z,18.94
2017-04-22T02:54:20.489Z,18.79
2017-04-22T02:54:39.753Z,18.84
2017-04-22T02:54:59.029Z,18.89
2017-04-22T02:55:18.322Z,18.92
2017-04-22T02:55:37.602Z,18.89
2017-04-22T02:55:56.886Z,18.89
2017-04-22T02:56:16.149Z,18.9
2017-04-22T02:56:35.523Z,18.9
2017-04-22T02:56:54.798Z,18.89
2017-04-22T02:57:14.061Z,18.89
2017-04-22T02:57:33.382Z,18.95
2017-04-22T02:57:52.691Z,18.95
2017-04-22T02:58:11.461Z,18.92
2017-04-22T02:58:30.721Z,18.92
2017-04-22T02:58:49.957Z,18.94
2017-04-22T02:59:09.236Z,19.02
2017-04-22T02:59:28.509Z,18.98
2017-04-22T02:59:48.005Z,18.98
2017-04-22T03:00:06.220Z,18.97
2017-04-22T03:00:25.466Z,18.98
2017-04-22T03:00:44.748Z,19.05
2017-04-22T03:01:04.108Z,18.97
2017-04-22T03:01:23.378Z,18.92
2017-04-22T03:01:42.663Z,18.95
2017-04-22T03:02:01.438Z,18.95
2017-04-22T03:02:20.728Z,18.98
2017-04-22T03:02:39.496Z,18.95
2017-04-22T03:02:58.751Z,19.01
2017-04-22T03:03:17.651Z,18.99
2017-04-22T03:03:36.901Z,19.01
2017-04-22T03:03:56.171Z,18.98
2017-04-22T03:04:14.910Z,18.98
2017-04-22T03:04:34.138Z,18.98
2017-04-22T03:04:53.429Z,19.01
2017-04-22T03:05:12.165Z,19.01
2017-04-22T03:05:31.405Z,18.98
2017-04-22T03:05:50.705Z,18.98
2017-04-22T03:06:09.461Z,19.08
2017-04-22T03:06:28.746Z,19.06
2017-04-22T03:06:48.292Z,19.09
2017-04-22T03:07:06.550Z,19.14
2017-04-22T03:07:25.811Z,19.13
2017-04-22T03:07:44.632Z,19.06
2017-04-22T03:08:03.866Z,19.13
2017-04-22T03:08:23.111Z,19.15
2017-04-22T03:08:42.349Z,19.05
2017-04-22T03:09:01.656Z,19.09
2017-04-22T03:09:20.970Z,19.06
2017-04-22T03:09:40.192Z,19.09
2017-04-22T03:09:59.473Z,19.11
2017-04-22T03:10:18.202Z,19.11
2017-04-22T03:10:37.471Z,19.15
2017-04-22T03:10:56.729Z,19.02
2017-04-22T03:11:16.141Z,19.06
2017-04-22T03:11:35.398Z,19.14
2017-04-22T03:11:54.643Z,19.11
2017-04-22T03:12:14.114Z,19.15
2017-04-22T03:12:32.896Z,19.14
2017-04-22T03:12:51.665Z,19.15
2017-04-22T03:13:10.439Z,19.09
2017-04-22T03:13:29.699Z,19.15
2017-04-22T03:13:48.969Z,19.14
2017-04-22T03:14:08.247Z,19.17
2017-04-22T03:14:27.539Z,19.02
2017-04-22T03:14:46.490Z,18.99
2017-04-22T03:15:05.254Z,19.11
2017-04-22T03:15:24.477Z,19.01
2017-04-22T03:15:43.225Z,19.01
2017-04-22T03:16:01.990Z,19.05
2017-04-22T03:16:21.230Z,19.01
2017-04-22T03:16:40.477Z,19.02
2017-04-22T03:16:59.961Z,19.06
2017-04-22T03:17:19.255Z,19.06
2017-04-22T03:17:38.529Z,19.08
2017-04-22T03:17:57.790Z,19.08
2017-04-22T03:18:17.053Z,19.14
2017-04-22T03:18:36.294Z,19.13
2017-04-22T03:18:55.587Z,19.08
2017-04-22T03:19:14.882Z,19.2
2017-04-22T03:19:33.647Z,19.14
2017-04-22T03:19:52.915Z,19.01
2017-04-22T03:20:12.285Z,19.09
2017-04-22T03:20:31.568Z,19.11
2017-04-22T03:20:50.823Z,19.09
2017-04-22T03:21:10.117Z,19.14
2017-04-22T03:21:29.415Z,19.11
2017-04-22T03:21:49.133Z,19.15
2017-04-22T03:22:07.889Z,19.14
2017-04-22T03:22:26.666Z,19.06
2017-04-22T03:22:45.948Z,19.05
2017-04-22T03:23:05.242Z,19.08
2017-04-22T03:23:24.510Z,19.11
2017-04-22T03:23:43.776Z,19.09
2017-04-22T03:24:03.046Z,19.11
2017-04-22T03:24:22.323Z,19.08
2017-04-22T03:24:41.636Z,19.13
2017-04-22T03:25:00.905Z,19.11
2017-04-22T03:25:20.177Z,19.08
2017-04-22T03:25:38.940Z,19.17
2017-04-22T03:25:58.206Z,19.08
2017-04-22T03:26:17.446Z,19.11
2017-04-22T03:26:36.728Z,19.11
2017-04-22T03:26:56.130Z,19.14
2017-04-22T03:27:15.513Z,19.05
2017-04-22T03:27:34.803Z,19.09
2017-04-22T03:27:54.084Z,19.11
2017-04-22T03:28:12.857Z,19.13
2017-04-22T03:28:31.619Z,19.09
2017-04-22T03:28:50.875Z,19.15
2017-04-22T03:29:10.140Z,19.08
2017-04-22T03:29:29.059Z,19.02
2017-04-22T03:29:48.345Z,19.08
2017-04-22T03:30:07.614Z,19.17
2017-04-22T03:30:26.381Z,19.11
2017-04-22T03:30:45.849Z,19.06
2017-04-22T03:31:05.296Z,19.2
2017-04-22T03:31:24.617Z,19.13
2017-04-22T03:31:43.892Z,19.14
2017-04-22T03:32:02.641Z,19.13
2017-04-22T03:32:21.900Z,19.13
2017-04-22T03:32:41.212Z,19.17
2017-04-22T03:32:59.973Z,19.17
2017-04-22T03:33:18.716Z,19.14
2017-04-22T03:33:37.982Z,19.17
2017-04-22T03:33:56.726Z,19.09
2017-04-22T03:34:15.465Z,19.09
2017-04-22T03:34:34.735Z,19.2
2017-04-22T03:34:54.125Z,19.14
2017-04-22T03:35:12.891Z,19.17
2017-04-22T03:35:31.636Z,19.15
2017-04-22T03:35:50.895Z,19.17
2017-04-22T03:36:10.171Z,19.09
2017-04-22T03:36:29.438Z,19.17
2017-04-22T03:36:47.845Z,19.15
2017-04-22T03:37:06.580Z,19.14
2017-04-22T03:37:25.844Z,19.11
2017-04-22T03:37:44.711Z,19.08
2017-04-22T03:38:03.977Z,19.2
2017-04-22T03:38:56.518Z,19.18
2017-04-22T03:39:15.257Z,19.11
2017-04-22T03:39:34.538Z,19.08
2017-04-22T03:39:53.804Z,18.97
2017-04-22T03:40:13.063Z,19.01
2017-04-22T03:40:32.322Z,18.95
2017-04-22T03:40:51.630Z,18.98
2017-04-22T03:41:10.905Z,18.99
2017-04-22T03:41:30.218Z,18.95
2017-04-22T03:41:49.219Z,19.01
2017-04-22T03:42:08.502Z,18.97
2017-04-22T03:42:27.240Z,18.98
2017-04-22T03:42:46.520Z,19.05
2017-04-22T03:43:05.787Z,18.98
2017-04-22T03:43:24.570Z,19.06
2017-04-22T03:43:43.837Z,18.97
2017-04-22T03:44:02.583Z,18.98
2017-04-22T03:44:21.305Z,18.92
2017-04-22T03:44:40.562Z,18.95
2017-04-22T03:44:59.793Z,18.98
2017-04-22T03:45:19.065Z,18.84
2017-04-22T03:45:38.333Z,18.92
2017-04-22T03:45:57.631Z,18.9
2017-04-22T03:46:16.367Z,18.95
2017-04-22T03:46:35.616Z,18.94
2017-04-22T03:46:54.370Z,18.89
2017-04-22T03:47:13.645Z,18.9
2017-04-22T03:47:32.413Z,18.95
2017-04-22T03:47:51.780Z,18.95
2017-04-22T03:48:11.046Z,18.97
2017-04-22T03:48:30.292Z,18.87
2017-04-22T03:48:49.532Z,18.9
2017-04-22T03:49:08.798Z,18.94
2017-04-22T03:49:28.090Z,18.94
2017-04-22T03:49:47.336Z,18.9
2017-04-22T03:50:06.599Z,18.97
2017-04-22T03:50:25.350Z,18.9
2017-04-22T03:50:44.626Z,18.89
2017-04-22T03:51:03.325Z,18.94
2017-04-22T03:51:22.055Z,18.84
2017-04-22T03:51:41.394Z,18.82
2017-04-22T03:52:00.144Z,18.97
2017-04-22T03:52:19.412Z,18.92
2017-04-22T03:52:38.658Z,18.83
2017-04-22T03:52:57.417Z,18.84
2017-04-22T03:53:16.695Z,18.9
2017-04-22T03:53:35.953Z,18.89
2017-04-22T03:53:55.221Z,18.97
2017-04-22T03:54:14.490Z,18.89
2017-04-22T03:54:33.766Z,18.94
2017-04-22T03:54:52.524Z,18.92
2017-04-22T03:55:11.786Z,18.86
2017-04-22T03:55:31.136Z,18.9
2017-04-22T03:55:50.405Z,18.99
2017-04-22T03:56:09.668Z,18.89
2017-04-22T03:56:28.435Z,18.89
2017-04-22T03:56:47.533Z,18.89
2017-04-22T03:57:06.283Z,18.92
2017-04-22T03:57:25.548Z,18.92
2017-04-22T03:57:44.826Z,18.87
2017-04-22T03:58:03.606Z,18.92
2017-04-22T03:58:22.877Z,18.94
2017-04-22T03:58:42.157Z,18.89
2017-04-22T03:59:00.917Z,18.95
2017-04-22T03:59:19.684Z,18.98
2017-04-22T03:59:38.426Z,18.95
2017-04-22T03:59:57.691Z,18.98
2017-04-22T04:00:16.926Z,18.97
2017-04-22T04:00:36.212Z,18.92
2017-04-22T04:00:55.528Z,18.95
2017-04-22T04:01:14.392Z,18.94
2017-04-22T04:01:33.149Z,18.97
2017-04-22T04:01:52.239Z,18.98
2017-04-22T04:02:11.517Z,18.98
2017-04-22T04:02:30.250Z,18.98
2017-04-22T04:02:49.537Z,18.9
2017-04-22T04:03:08.767Z,18.97
2017-04-22T04:03:28.044Z,19.05
2017-04-22T04:03:47.299Z,19.05
2017-04-22T04:04:06.591Z,18.99
2017-04-22T04:04:24.829Z,19.02
2017-04-22T04:04:44.112Z,18.95
2017-04-22T04:05:03.393Z,19.02
2017-04-22T04:05:22.663Z,18.94
2017-04-22T04:05:41.918Z,19.09
2017-04-22T04:06:01.189Z,19.15
2017-04-22T04:06:20.470Z,19.15
2017-04-22T04:06:39.727Z,19.05
2017-04-22T04:06:58.449Z,19.11
2017-04-22T04:07:17.731Z,19.08
2017-04-22T04:07:37.006Z,19.13
2017-04-22T04:07:56.238Z,19.13
2017-04-22T04:08:15.496Z,19.13
2017-04-22T04:08:34.255Z,19.09
2017-04-22T04:08:53.521Z,19.11
2017-04-22T04:09:12.802Z,19.11